Time;durP1;ratioP1;P1;durP2;ratioP2;P2;SDS_P1;SDS_P2;PMS_P1;PMS_P2;Temp;Humidity;BMP_temperature;BMP_pressure;BME280_temperature;BME280_humidity;BME280_pressure;Samples;Min_cycle;Max_cycle;Signal;HPM_P1;HPM_P2
2020/12/21 00:00:19;;;;;;;35.38;17.73;;;;;;;0.74;88.06;101513.30;1689542;83;26884;-49
2020/12/21 00:02:48;;;;;;;36.33;17.80;;;;;;;0.77;88.08;101508.08;1689533;84;25752;-46
2020/12/21 00:05:15;;;;;;;36.30;17.98;;;;;;;0.80;87.96;101509.48;1689809;84;26067;-48
2020/12/21 00:07:42;;;;;;;36.30;17.75;;;;;;;0.80;88.04;101520.14;1689546;84;26124;-49
2020/12/21 00:10:09;;;;;;;39.20;18.07;;;;;;;0.81;87.93;101512.47;1689645;84;25880;-45
2020/12/21 00:12:36;;;;;;;41.35;19.85;;;;;;;0.80;87.72;101519.65;1689758;83;26247;-47
2020/12/21 00:15:05;;;;;;;44.10;19.75;;;;;;;0.81;87.78;101513.80;1689601;84;26636;-44
2020/12/21 00:17:34;;;;;;;39.05;18.77;;;;;;;0.81;87.85;101513.27;1689712;84;25743;-44
2020/12/21 00:20:01;;;;;;;41.58;18.70;;;;;;;0.82;87.92;101505.59;1689375;84;25744;-44
2020/12/21 00:22:27;;;;;;;41.02;19.52;;;;;;;0.74;87.89;101493.33;1689635;84;25851;-45
2020/12/21 00:24:54;;;;;;;37.90;18.42;;;;;;;0.83;87.77;101503.73;1694627;83;26161;-45
2020/12/21 00:27:21;;;;;;;37.33;18.35;;;;;;;0.81;87.57;101505.28;1672191;85;25841;-46
2020/12/21 00:29:48;;;;;;;47.08;20.12;;;;;;;0.80;87.62;101501.49;1698472;84;25632;-45
2020/12/21 00:32:15;;;;;;;41.28;19.82;;;;;;;0.80;87.73;101501.00;1698056;83;25748;-45
2020/12/21 00:34:41;;;;;;;45.80;21.40;;;;;;;0.79;87.64;101502.55;1698363;84;25662;-52
2020/12/21 00:37:09;;;;;;;43.05;21.15;;;;;;;0.79;87.67;101506.02;1698216;84;25890;-43
2020/12/21 00:39:35;;;;;;;42.10;20.43;;;;;;;0.78;87.66;101508.36;1698218;84;25660;-44
2020/12/21 00:42:02;;;;;;;45.90;19.82;;;;;;;0.78;87.74;101505.70;1698299;83;25657;-46
2020/12/21 00:44:28;;;;;;;41.08;20.20;;;;;;;0.78;87.76;101500.90;1696793;83;25749;-45
2020/12/21 00:46:55;;;;;;;48.42;22.58;;;;;;;0.75;87.72;101504.82;1691654;84;25968;-48
2020/12/21 00:49:22;;;;;;;44.50;19.40;;;;;;;0.76;87.77;101501.64;1691610;84;25731;-47
2020/12/21 00:51:48;;;;;;;45.63;21.65;;;;;;;0.76;87.81;101497.64;1691610;84;25668;-45
2020/12/21 00:54:15;;;;;;;48.25;21.30;;;;;;;0.76;87.84;101498.97;1691348;84;25934;-47
2020/12/21 00:56:42;;;;;;;42.73;20.68;;;;;;;0.76;87.87;101499.78;1691514;84;26365;-50
2020/12/21 00:59:08;;;;;;;44.95;19.82;;;;;;;0.74;87.89;101502.66;1691606;84;25770;-49
2020/12/21 01:01:35;;;;;;;49.75;22.48;;;;;;;0.74;87.87;101506.64;1691413;84;25921;-48
2020/12/21 01:04:04;;;;;;;48.42;21.60;;;;;;;0.73;87.90;101501.53;1691307;84;27103;-47
2020/12/21 01:06:35;;;;;;;50.43;22.35;;;;;;;0.74;87.98;101503.17;1691667;84;25740;-48
2020/12/21 01:09:02;;;;;;;44.93;22.32;;;;;;;0.77;88.09;101501.92;1701000;84;25986;-46
2020/12/21 01:11:29;;;;;;;51.05;22.17;;;;;;;0.78;88.04;101488.39;1701066;84;25792;-47
2020/12/21 01:13:57;;;;;;;45.48;21.02;;;;;;;0.79;88.07;101498.02;1701172;84;25995;-49
2020/12/21 01:16:23;;;;;;;50.55;22.10;;;;;;;0.80;88.01;101500.16;1701364;84;26239;-45
2020/12/21 01:18:51;;;;;;;48.30;21.23;;;;;;;0.78;87.92;101503.56;1701956;84;25724;-47
2020/12/21 01:21:30;;;;;;;41.98;18.80;;;;;;;0.77;87.99;101498.77;1702500;84;25628;-46
2020/12/21 01:23:58;;;;;;;38.33;17.77;;;;;;;0.78;87.85;101496.91;1702910;84;25640;-48
2020/12/21 01:26:27;;;;;;;35.48;16.05;;;;;;;0.76;87.79;101497.64;1696882;84;25792;-45
2020/12/21 01:28:55;;;;;;;30.95;15.45;;;;;;;0.74;87.83;101493.86;1696474;84;25723;-45
2020/12/21 01:31:22;;;;;;;35.52;16.65;;;;;;;0.73;87.77;101497.53;1696525;84;25670;-45
2020/12/21 01:33:50;;;;;;;35.35;16.97;;;;;;;0.72;87.84;101494.06;1696457;84;25654;-46
2020/12/21 01:36:20;;;;;;;36.40;16.75;;;;;;;0.73;87.89;101491.72;1696620;84;25198;-52
2020/12/21 01:38:47;;;;;;;35.38;16.37;;;;;;;0.73;87.93;101489.05;1696724;84;25945;-50
2020/12/21 01:41:14;;;;;;;33.78;16.42;;;;;;;0.76;87.92;101485.13;1696524;84;25674;-48
2020/12/21 01:43:41;;;;;;;33.33;15.10;;;;;;;0.77;88.00;101484.11;1696554;84;25963;-49
2020/12/21 01:46:13;;;;;;;30.25;15.03;;;;;;;0.81;87.95;101481.83;1696487;84;25593;-48
2020/12/21 01:48:43;;;;;;;28.95;15.08;;;;;;;0.80;87.81;101479.69;1696632;84;25622;-48
2020/12/21 01:51:20;;;;;;;35.33;15.00;;;;;;;0.83;87.93;101471.77;1696758;84;25744;-46
2020/12/21 01:53:47;;;;;;;33.25;15.55;;;;;;;0.84;87.94;101478.74;1693844;84;25601;-46
2020/12/21 01:56:17;;;;;;;35.88;15.50;;;;;;;0.85;87.91;101469.21;1696575;84;25665;-44
2020/12/21 01:58:45;;;;;;;35.80;16.50;;;;;;;0.86;87.92;101479.34;1696724;84;34806;-47
2020/12/21 02:01:13;;;;;;;31.12;15.35;;;;;;;0.85;87.80;101471.03;1696572;84;25673;-48
2020/12/21 02:03:42;;;;;;;30.32;15.08;;;;;;;0.85;87.83;101471.03;1696684;84;25807;-45
2020/12/21 02:06:10;;;;;;;35.75;16.82;;;;;;;0.86;87.86;101462.83;1696505;84;26686;-46
2020/12/21 02:08:37;;;;;;;29.90;15.48;;;;;;;0.86;87.87;101464.16;1696618;84;25850;-47
2020/12/21 02:11:05;;;;;;;30.37;16.42;;;;;;;0.86;87.83;101470.02;1696594;84;25676;-48
2020/12/21 02:13:32;;;;;;;31.15;15.53;;;;;;;0.86;87.85;101468.69;1696654;84;25627;-47
2020/12/21 02:16:00;;;;;;;32.30;15.03;;;;;;;0.86;87.85;101464.69;1696618;84;27336;-47
2020/12/21 02:18:27;;;;;;;32.58;16.02;;;;;;;0.86;87.91;101468.16;1696745;84;25688;-55
2020/12/21 02:20:54;;;;;;;33.13;16.67;;;;;;;0.88;87.94;101462.62;1696664;84;25654;-54
2020/12/21 02:23:20;;;;;;;33.92;17.10;;;;;;;0.89;87.98;101462.41;1696560;84;25701;-50
2020/12/21 02:25:47;;;;;;;31.50;15.10;;;;;;;0.91;87.95;101467.00;1688909;84;25712;-45
2020/12/21 02:28:15;;;;;;;32.42;15.78;;;;;;;0.90;87.92;101460.05;1687382;85;25942;-48
2020/12/21 02:30:41;;;;;;;30.00;15.50;;;;;;;0.90;87.92;101460.55;1670081;85;25749;-48
2020/12/21 02:33:08;;;;;;;32.08;15.35;;;;;;;0.91;87.89;101456.34;1670170;85;25735;-46
2020/12/21 02:35:35;;;;;;;33.78;14.83;;;;;;;0.91;87.85;101452.34;1670133;85;25841;-47
2020/12/21 02:38:07;;;;;;;30.85;13.75;;;;;;;0.92;87.81;101451.85;1670209;85;25907;-48
2020/12/21 02:40:38;;;;;;;28.67;14.15;;;;;;;0.90;87.77;101449.89;1670243;85;25733;-52
2020/12/21 02:43:04;;;;;;;31.02;14.35;;;;;;;0.88;87.82;101448.77;1670139;85;26338;-46
2020/12/21 02:45:31;;;;;;;30.95;15.38;;;;;;;0.90;87.83;101445.89;1670266;85;25673;-45
2020/12/21 02:47:58;;;;;;;28.20;14.28;;;;;;;0.89;87.77;101445.09;1670202;85;25653;-46
2020/12/21 02:50:25;;;;;;;30.10;15.08;;;;;;;0.89;87.80;101441.09;1670204;85;25681;-45
2020/12/21 02:52:52;;;;;;;31.87;15.20;;;;;;;0.91;87.86;101443.55;1670210;85;25999;-44
2020/12/21 02:55:18;;;;;;;27.73;13.58;;;;;;;0.93;87.85;101442.81;1670175;85;25697;-46
2020/12/21 02:57:46;;;;;;;30.00;15.45;;;;;;;0.93;87.83;101440.95;1670118;85;25781;-60
2020/12/21 03:00:13;;;;;;;31.73;14.75;;;;;;;0.94;87.84;101440.45;1670176;85;25954;-45
2020/12/21 03:02:40;;;;;;;29.32;15.15;;;;;;;0.96;87.79;101438.91;1670338;85;25311;-46
2020/12/21 03:05:07;;;;;;;30.43;14.25;;;;;;;0.93;87.70;101443.61;1670176;85;27174;-45
2020/12/21 03:07:35;;;;;;;30.15;15.80;;;;;;;0.93;87.72;101444.95;1670138;85;25679;-49
2020/12/21 03:10:03;;;;;;;32.67;15.25;;;;;;;0.94;87.79;101451.11;1670205;85;25591;-45
2020/12/21 03:12:30;;;;;;;29.23;14.80;;;;;;;0.92;87.78;101447.33;1670085;85;25733;-45
2020/12/21 03:14:56;;;;;;;28.83;15.40;;;;;;;0.95;87.84;101443.92;1670262;85;25612;-46
2020/12/21 03:17:23;;;;;;;30.23;15.10;;;;;;;0.93;87.81;101443.61;1670218;85;27194;-47
2020/12/21 03:19:50;;;;;;;32.20;14.65;;;;;;;0.95;87.88;101443.92;1670107;85;25653;-45
2020/12/21 03:22:16;;;;;;;29.72;14.58;;;;;;;0.92;87.85;101434.01;1670221;85;25748;-45
2020/12/21 03:24:43;;;;;;;32.73;15.13;;;;;;;0.92;87.86;101435.34;1670148;85;25629;-45
2020/12/21 03:27:10;;;;;;;30.82;14.75;;;;;;;0.90;87.90;101429.91;1700480;84;25628;-47
2020/12/21 03:29:36;;;;;;;29.82;14.33;;;;;;;0.90;88.01;101434.74;1700899;84;26288;-45
2020/12/21 03:32:03;;;;;;;29.50;14.63;;;;;;;0.88;87.96;101433.31;1700830;84;25617;-50
2020/12/21 03:34:29;;;;;;;30.10;14.47;;;;;;;0.87;88.04;101438.33;1700813;84;25574;-45
2020/12/21 03:36:57;;;;;;;34.08;16.25;;;;;;;0.86;88.07;101434.86;1700888;84;25613;-45
2020/12/21 03:39:23;;;;;;;33.30;15.65;;;;;;;0.87;88.14;101432.51;1700853;84;25618;-45
2020/12/21 03:41:50;;;;;;;37.83;15.48;;;;;;;0.88;88.14;101430.13;1700858;84;25985;-45
2020/12/21 03:44:16;;;;;;;30.17;15.70;;;;;;;0.89;88.11;101426.97;1700919;84;25973;-45
2020/12/21 03:46:43;;;;;;;34.83;15.93;;;;;;;0.89;88.18;101433.10;1700817;84;25677;-47
2020/12/21 03:49:10;;;;;;;32.67;16.12;;;;;;;0.91;88.20;101435.03;1700943;84;25708;-46
2020/12/21 03:51:36;;;;;;;31.68;16.12;;;;;;;0.91;88.15;101435.55;1701012;84;25697;-45
2020/12/21 03:54:03;;;;;;;30.05;15.80;;;;;;;0.90;88.10;101432.58;1700784;84;25724;-44
2020/12/21 03:56:30;;;;;;;35.43;17.52;;;;;;;0.88;88.11;101435.45;1700625;84;25668;-44
2020/12/21 03:58:57;;;;;;;33.33;17.02;;;;;;;0.88;88.14;101440.78;1700710;83;26082;-47
2020/12/21 04:01:23;;;;;;;35.75;16.67;;;;;;;0.88;88.17;101439.97;1700701;84;25664;-45
2020/12/21 04:03:50;;;;;;;34.33;17.57;;;;;;;0.86;88.19;101438.86;1700623;84;25676;-44
2020/12/21 04:06:18;;;;;;;36.03;17.27;;;;;;;0.85;88.26;101430.58;1700703;84;26354;-46
2020/12/21 04:08:45;;;;;;;33.95;16.95;;;;;;;0.86;88.33;101421.54;1700733;84;25708;-45
2020/12/21 04:11:12;;;;;;;34.30;17.85;;;;;;;0.89;88.44;101429.63;1700706;84;25660;-46
2020/12/21 04:13:39;;;;;;;37.78;19.23;;;;;;;0.89;88.44;101423.78;1700835;84;25656;-45
2020/12/21 04:16:06;;;;;;;39.58;19.20;;;;;;;0.90;88.40;101421.92;1700837;84;25643;-45
2020/12/21 04:18:32;;;;;;;38.33;17.30;;;;;;;0.90;88.34;101419.25;1700887;84;25713;-46
2020/12/21 04:20:59;;;;;;;39.45;18.70;;;;;;;0.90;88.42;101419.25;1700793;83;25585;-46
2020/12/21 04:23:26;;;;;;;38.83;17.67;;;;;;;0.89;88.36;101422.45;1700718;84;25688;-45
2020/12/21 04:25:53;;;;;;;43.33;19.27;;;;;;;0.88;88.47;101427.46;1701084;84;25803;-48
2020/12/21 04:28:21;;;;;;;44.73;19.85;;;;;;;0.86;88.44;101432.20;1701899;84;25694;-45
2020/12/21 04:30:47;;;;;;;41.92;19.15;;;;;;;0.86;88.53;101426.06;1702076;84;27276;-48
2020/12/21 04:33:14;;;;;;;42.78;18.82;;;;;;;0.88;88.62;101425.33;1693036;84;26027;-48
2020/12/21 04:35:41;;;;;;;42.00;18.80;;;;;;;0.90;88.67;101420.59;1693076;84;25701;-45
2020/12/21 04:38:08;;;;;;;41.53;18.60;;;;;;;0.89;88.59;101420.31;1702805;84;26329;-55
2020/12/21 04:40:35;;;;;;;42.13;20.48;;;;;;;0.89;88.77;101422.97;1702913;84;25660;-47
2020/12/21 04:43:02;;;;;;;40.30;18.52;;;;;;;0.88;88.54;101423.99;1702844;84;26295;-48
2020/12/21 04:45:33;;;;;;;42.88;19.52;;;;;;;0.88;88.66;101416.80;1702718;84;25685;-47
2020/12/21 04:48:03;;;;;;;39.53;18.80;;;;;;;0.88;88.60;101405.34;1702843;84;25650;-44
2020/12/21 04:50:32;;;;;;;41.58;18.92;;;;;;;0.88;88.65;101406.67;1702791;84;25625;-46
2020/12/21 04:52:59;;;;;;;47.40;19.82;;;;;;;0.87;88.69;101404.53;1702844;84;26364;-48
2020/12/21 04:55:26;;;;;;;40.12;19.05;;;;;;;0.85;88.73;101403.95;1702890;84;26229;-45
2020/12/21 04:57:58;;;;;;;45.38;20.65;;;;;;;0.84;88.69;101406.30;1702747;84;26310;-46
2020/12/21 05:00:27;;;;;;;46.05;20.17;;;;;;;0.86;88.75;101412.74;1702851;84;25636;-48
2020/12/21 05:02:55;;;;;;;38.58;18.67;;;;;;;0.85;88.79;101408.44;1702947;84;25658;-47
2020/12/21 05:05:39;;;;;;;42.45;19.60;;;;;;;0.84;88.74;101407.63;1702806;84;25637;-44
2020/12/21 05:08:19;;;;;;;49.27;21.52;;;;;;;0.83;88.81;101402.52;1702902;84;26732;-45
2020/12/21 05:11:02;;;;;;;43.70;20.00;;;;;;;0.83;88.86;101401.19;1702849;84;25696;-45
2020/12/21 05:13:32;;;;;;;42.88;20.72;;;;;;;0.84;88.89;101401.49;1702835;84;25636;-43
2020/12/21 05:16:00;;;;;;;50.25;21.42;;;;;;;0.84;88.88;101402.83;1702981;84;25740;-45
2020/12/21 05:18:30;;;;;;;47.78;21.60;;;;;;;0.84;88.96;101396.97;1702980;84;25657;-51
2020/12/21 05:21:01;;;;;;;47.15;19.52;;;;;;;0.82;88.93;101401.70;1702777;84;27976;-47
2020/12/21 05:23:31;;;;;;;47.13;21.52;;;;;;;0.82;88.98;101400.38;1702786;84;25658;-47
2020/12/21 05:26:07;;;;;;;43.05;19.42;;;;;;;0.81;88.96;101399.26;1699152;84;25742;-46
2020/12/21 05:28:39;;;;;;;45.45;20.17;;;;;;;0.82;89.04;101397.71;1687387;84;25740;-48
2020/12/21 05:31:08;;;;;;;45.60;21.62;;;;;;;0.84;89.05;101398.30;1661757;85;25674;-48
2020/12/21 05:33:41;;;;;;;49.25;22.40;;;;;;;0.83;89.05;101391.86;1661689;85;25716;-49
2020/12/21 05:36:11;;;;;;;40.75;20.20;;;;;;;0.82;88.99;101397.71;1661662;85;25844;-49
2020/12/21 05:38:40;;;;;;;50.38;21.65;;;;;;;0.82;89.00;101395.05;1661861;85;25665;-47
2020/12/21 05:41:13;;;;;;;50.63;21.55;;;;;;;0.82;89.03;101397.71;1661860;85;26220;-48
2020/12/21 05:43:40;;;;;;;49.18;21.73;;;;;;;0.83;89.04;101406.51;1661895;86;25631;-45
2020/12/21 05:46:23;;;;;;;48.63;23.20;;;;;;;0.85;89.08;101399.11;1661721;86;26419;-44
2020/12/21 05:48:56;;;;;;;45.10;20.37;;;;;;;0.86;89.07;101397.56;1661663;86;25757;-49
2020/12/21 05:51:34;;;;;;;47.75;22.30;;;;;;;0.87;89.01;101396.55;1661879;86;25686;-44
2020/12/21 05:54:04;;;;;;;46.25;19.62;;;;;;;0.86;88.94;101396.76;1661815;85;25773;-47
2020/12/21 05:56:35;;;;;;;47.48;20.62;;;;;;;0.82;88.91;101397.71;1661778;86;25665;-45
2020/12/21 05:59:03;;;;;;;44.98;20.68;;;;;;;0.82;88.93;101396.88;1661853;85;26865;-47
2020/12/21 06:01:30;;;;;;;39.92;18.12;;;;;;;0.81;89.06;101409.39;1661744;85;25781;-45
2020/12/21 06:04:03;;;;;;;48.00;21.82;;;;;;;0.80;89.03;101401.61;1661742;86;25721;-50
2020/12/21 06:06:33;;;;;;;44.05;20.45;;;;;;;0.79;89.03;101411.45;1661807;86;25627;-46
2020/12/21 06:09:03;;;;;;;50.45;21.02;;;;;;;0.79;89.01;101414.65;1661797;86;25615;-49
2020/12/21 06:11:32;;;;;;;45.15;20.57;;;;;;;0.79;89.04;101413.31;1661808;85;25810;-45
2020/12/21 06:14:04;;;;;;;46.33;19.73;;;;;;;0.81;89.08;101408.58;1662011;86;25724;-48
2020/12/21 06:16:36;;;;;;;48.15;21.90;;;;;;;0.82;89.09;101402.20;1661516;85;25667;-46
2020/12/21 06:19:10;;;;;;;52.40;22.05;;;;;;;0.84;89.12;101402.83;1659646;86;25689;-46
2020/12/21 06:21:53;;;;;;;48.85;21.97;;;;;;;0.86;89.12;101403.42;1670255;85;25722;-48
2020/12/21 06:24:24;;;;;;;47.15;20.90;;;;;;;0.85;89.04;101408.44;1670206;85;25839;-46
2020/12/21 06:26:55;;;;;;;45.23;21.05;;;;;;;0.84;88.94;101408.16;1682762;84;25667;-56
2020/12/21 06:29:25;;;;;;;47.20;21.05;;;;;;;0.85;88.98;101403.11;1701920;84;25768;-46
2020/12/21 06:31:57;;;;;;;;;;;;;;;0.83;89.01;101402.52;1704288;84;26033;-47
2020/12/21 06:34:36;;;;;;;48.13;20.57;;;;;;;0.82;89.00;101399.53;1699429;84;25671;-49
2020/12/21 06:37:08;;;;;;;43.58;19.85;;;;;;;0.81;88.98;101405.39;1699948;84;26343;-48
2020/12/21 06:39:35;;;;;;;47.25;21.10;;;;;;;0.82;89.02;101409.70;1699371;84;25652;-47
2020/12/21 06:42:09;;;;;;;40.90;19.07;;;;;;;0.81;89.01;101412.05;1702307;84;25660;-45
2020/12/21 06:44:39;;;;;;;44.53;19.90;;;;;;;0.81;89.03;101408.05;1693191;84;25595;-49
2020/12/21 06:47:09;;;;;;;47.93;21.12;;;;;;;0.81;89.04;101408.58;1693235;84;25663;-48
2020/12/21 06:49:37;;;;;;;45.67;19.48;;;;;;;0.83;89.05;101411.84;1683055;83;25796;-48
2020/12/21 06:52:05;;;;;;;41.30;20.30;;;;;;;0.81;89.04;101409.39;1719629;82;25756;-48
2020/12/21 06:54:32;;;;;;;43.20;20.57;;;;;;;0.82;89.06;101413.70;1702463;84;25685;-48
2020/12/21 06:56:59;;;;;;;42.20;20.25;;;;;;;0.85;89.10;101419.93;1702532;84;25665;-47
2020/12/21 06:59:27;;;;;;;47.05;21.57;;;;;;;0.85;89.02;101419.93;1674055;85;25654;-49
2020/12/21 07:01:56;;;;;;;48.25;20.77;;;;;;;0.85;89.02;101413.77;1702611;84;27033;-47
2020/12/21 07:04:25;;;;;;;45.50;22.52;;;;;;;0.87;89.07;101421.85;1702573;84;25693;-46
2020/12/21 07:06:52;;;;;;;43.33;21.23;;;;;;;0.89;89.08;101425.63;1702638;84;25721;-47
2020/12/21 07:09:25;;;;;;;44.70;22.17;;;;;;;0.89;88.99;101420.31;1702513;84;25680;-47
2020/12/21 07:12:00;;;;;;;51.40;21.65;;;;;;;0.89;89.03;101417.12;1702768;84;25736;-46
2020/12/21 07:14:29;;;;;;;49.88;21.12;;;;;;;0.91;89.05;101415.57;1677671;83;26256;-54
2020/12/21 07:17:06;;;;;;;47.40;21.85;;;;;;;0.89;88.95;101418.45;1706181;82;25988;-57
2020/12/21 07:19:36;;;;;;;48.95;21.73;;;;;;;0.88;88.90;101415.47;1743461;81;25699;-57
2020/12/21 07:22:04;;;;;;;46.60;21.62;;;;;;;0.90;88.99;101417.92;1721422;83;25615;-59
2020/12/21 07:24:32;;;;;;;46.88;21.62;;;;;;;0.90;88.95;101417.92;1734599;82;25577;-56
2020/12/21 07:26:58;;;;;;;51.02;22.02;;;;;;;0.90;88.94;101415.27;1716670;83;26682;-53
2020/12/21 07:29:35;;;;;;;51.08;22.13;;;;;;;0.90;89.06;101422.76;1691171;84;25752;-52
2020/12/21 07:32:06;;;;;;;44.95;21.30;;;;;;;0.91;88.98;101423.03;1669061;84;25742;-54
2020/12/21 07:34:34;;;;;;;51.55;21.87;;;;;;;0.91;88.91;101415.57;1719920;83;26206;-52
2020/12/21 07:37:11;;;;;;;50.33;22.37;;;;;;;0.92;89.00;101426.54;1701334;84;25509;-55
2020/12/21 07:39:37;;;;;;;51.18;22.93;;;;;;;0.92;89.05;101415.36;1701097;83;26354;-56
2020/12/21 07:42:08;;;;;;;49.13;23.30;;;;;;;0.92;89.00;101418.02;1701278;84;25682;-57
2020/12/21 07:44:40;;;;;;;46.40;21.20;;;;;;;0.91;88.97;101414.23;1677222;84;26322;-51
2020/12/21 07:47:16;;;;;;;49.65;21.45;;;;;;;0.92;88.99;101411.36;1719058;83;25836;-51
2020/12/21 07:49:44;;;;;;;48.68;22.07;;;;;;;0.92;88.92;101427.88;1719469;83;25686;-51
2020/12/21 07:52:14;;;;;;;42.38;20.45;;;;;;;0.91;88.96;101415.05;1719409;82;25925;-51
2020/12/21 07:54:43;;;;;;;48.87;21.90;;;;;;;0.92;88.93;101407.37;1719654;83;25752;-52
2020/12/21 07:57:12;;;;;;;54.87;21.27;;;;;;;0.93;88.90;101409.50;1719866;82;25641;-52
2020/12/21 07:59:39;;;;;;;43.58;19.87;;;;;;;0.93;88.91;101415.64;1710326;82;25755;-51
2020/12/21 08:02:09;;;;;;;46.48;21.00;;;;;;;0.93;88.92;101415.64;1701733;84;25728;-52
2020/12/21 08:04:36;;;;;;;;;;;;;;;0.95;88.88;101411.95;1676694;85;27561;-49
2020/12/21 08:07:11;;;;;;;46.48;20.37;;;;;;;0.96;88.93;101421.06;1686013;85;25622;-49
2020/12/21 08:09:43;;;;;;;46.77;20.77;;;;;;;0.97;88.93;101422.71;1697952;84;25695;-49
2020/12/21 08:12:15;;;;;;;49.10;21.87;;;;;;;0.96;88.90;101414.41;1655304;86;25704;-50
2020/12/21 08:14:45;;;;;;;46.35;21.68;;;;;;;0.98;88.86;101415.00;1658442;84;40702;-50
2020/12/21 08:17:15;;;;;;;46.28;22.82;;;;;;;0.98;88.86;101416.33;1645319;87;25866;-52
2020/12/21 08:19:54;;;;;;;50.10;22.45;;;;;;;1.01;88.85;101416.42;1646550;84;25690;-48
2020/12/21 08:22:23;;;;;;;48.70;23.02;;;;;;;1.02;88.80;101414.05;1676417;84;25726;-51
2020/12/21 08:25:10;;;;;;;44.30;21.05;;;;;;;1.03;88.76;101417.83;1672553;85;25852;-48
2020/12/21 08:27:51;;;;;;;45.25;22.60;;;;;;;1.05;88.84;101409.09;1683187;83;25666;-48
2020/12/21 08:30:23;;;;;;;57.35;24.12;;;;;;;1.10;88.83;101412.44;1700153;84;26883;-52
2020/12/21 08:32:52;;;;;;;49.65;23.27;;;;;;;1.12;88.69;101413.03;1699980;84;25680;-52
2020/12/21 08:35:27;;;;;;;54.27;23.10;;;;;;;1.13;88.76;101409.34;1700371;84;25680;-52
2020/12/21 08:38:06;;;;;;;47.80;21.97;;;;;;;1.17;88.72;101416.38;1700120;84;25771;-52
2020/12/21 08:40:32;;;;;;;46.60;21.65;;;;;;;1.17;88.50;101410.53;1700193;84;25694;-57
2020/12/21 08:43:00;;;;;;;48.02;23.00;;;;;;;1.17;88.40;101410.53;1700176;84;27211;-53
2020/12/21 08:45:26;;;;;;;45.55;22.05;;;;;;;1.18;88.46;101414.84;1700047;84;25601;-51
2020/12/21 08:47:53;;;;;;;44.42;22.30;;;;;;;1.21;88.36;101417.07;1700136;84;25620;-50
2020/12/21 08:50:20;;;;;;;43.05;21.90;;;;;;;1.21;88.32;101417.56;1700111;84;25682;-52
2020/12/21 08:52:49;;;;;;;48.85;21.48;;;;;;;1.19;88.17;101413.81;1700095;83;25792;-53
2020/12/21 08:55:16;;;;;;;42.95;21.73;;;;;;;1.18;88.05;101416.70;1700255;82;25839;-53
2020/12/21 08:57:43;;;;;;;47.35;22.20;;;;;;;1.18;88.22;101410.03;1686074;84;25820;-53
2020/12/21 09:00:10;;;;;;;41.90;22.13;;;;;;;1.21;88.15;101414.91;1670344;85;25693;-51
2020/12/21 09:02:36;;;;;;;46.88;22.50;;;;;;;1.22;88.13;101411.21;1700113;84;26099;-52
2020/12/21 09:05:05;;;;;;;50.70;24.82;;;;;;;1.24;88.27;101415.80;1700116;84;25656;-52
2020/12/21 09:07:33;;;;;;;48.80;23.50;;;;;;;1.26;88.18;101411.06;1700308;84;26015;-56
2020/12/21 09:10:01;;;;;;;49.90;23.95;;;;;;;1.27;88.23;101403.37;1700167;84;25759;-54
2020/12/21 09:12:27;;;;;;;47.10;22.20;;;;;;;1.29;88.11;101408.80;1700102;84;26171;-57
2020/12/21 09:14:54;;;;;;;45.10;21.93;;;;;;;1.28;87.90;101407.16;1705701;83;30897;-52
2020/12/21 09:17:20;;;;;;;45.78;22.30;;;;;;;1.28;87.82;101409.82;1712562;83;25671;-50
2020/12/21 09:19:47;;;;;;;42.55;21.68;;;;;;;1.27;87.79;101409.52;1712463;83;26750;-51
2020/12/21 09:22:15;;;;;;;44.40;23.35;;;;;;;1.28;87.72;101407.16;1687089;83;45545;-52
2020/12/21 09:24:42;;;;;;;49.42;23.87;;;;;;;1.28;87.78;101405.02;1712477;83;25731;-48
2020/12/21 09:27:08;;;;;;;45.75;22.58;;;;;;;1.29;87.83;101403.47;1712356;83;25596;-49
2020/12/21 09:29:35;;;;;;;44.20;22.50;;;;;;;1.33;87.91;101400.34;1711033;83;26397;-55
2020/12/21 09:32:02;;;;;;;52.05;25.20;;;;;;;1.37;87.96;101404.22;1711197;83;25807;-51
2020/12/21 09:34:29;;;;;;;48.58;24.18;;;;;;;1.38;87.87;101402.66;1711049;83;25731;-50
2020/12/21 09:36:55;;;;;;;51.98;23.95;;;;;;;1.39;87.68;101395.47;1711103;83;25696;-53
2020/12/21 09:39:23;;;;;;;50.25;23.27;;;;;;;1.39;87.60;101393.61;1711183;83;25699;-52
2020/12/21 09:41:52;;;;;;;50.50;24.60;;;;;;;1.40;87.63;101395.78;1711209;83;25820;-49
2020/12/21 09:44:20;;;;;;;50.08;23.60;;;;;;;1.41;87.66;101376.87;1711083;83;26693;-46
2020/12/21 09:46:51;;;;;;;53.85;26.15;;;;;;;1.46;87.77;101380.22;1711284;83;25667;-52
2020/12/21 09:49:18;;;;;;;47.55;23.90;;;;;;;1.49;87.76;101382.44;1711341;83;26306;-56
2020/12/21 09:51:54;;;;;;;47.75;24.60;;;;;;;1.52;87.70;101381.20;1711222;83;25616;-53
2020/12/21 09:54:21;;;;;;;51.85;23.20;;;;;;;1.56;87.58;101381.04;1711010;83;25682;-51
2020/12/21 09:56:51;;;;;;;52.33;26.05;;;;;;;1.56;87.42;101376.52;1713150;83;25735;-48
2020/12/21 09:59:17;;;;;;;51.98;25.23;;;;;;;1.57;87.46;101374.69;1731246;82;25626;-50
2020/12/21 10:01:44;;;;;;;55.35;26.93;;;;;;;1.59;87.42;101381.94;1730913;82;25706;-50
2020/12/21 10:04:11;;;;;;;50.55;26.07;;;;;;;1.58;87.39;101365.63;1730948;82;25663;-49
2020/12/21 10:06:38;;;;;;;49.75;25.32;;;;;;;1.59;87.31;101368.08;1731138;82;25715;-49
2020/12/21 10:09:05;;;;;;;57.98;27.42;;;;;;;1.60;87.24;101372.87;1731037;82;25934;-53
2020/12/21 10:11:31;;;;;;;51.40;26.12;;;;;;;1.62;87.42;101370.83;1730945;82;25878;-49
2020/12/21 10:13:59;;;;;;;57.05;26.80;;;;;;;1.64;87.35;101372.22;1727194;80;26266;-51
2020/12/21 10:16:28;;;;;;;61.08;25.55;;;;;;;1.68;87.46;101364.58;1731055;82;25702;-48
2020/12/21 10:18:55;;;;;;;55.78;25.10;;;;;;;1.70;87.34;101359.03;1731028;82;25634;-58
2020/12/21 10:21:22;;;;;;;52.00;26.70;;;;;;;1.74;87.46;101361.03;1731064;82;25718;-48
2020/12/21 10:23:49;;;;;;;52.95;25.97;;;;;;;1.76;87.09;101355.48;1731192;82;25691;-51
2020/12/21 10:26:16;;;;;;;51.73;25.72;;;;;;;1.76;86.99;101360.81;1731235;82;25597;-50
2020/12/21 10:28:42;;;;;;;52.25;26.23;;;;;;;1.74;86.79;101359.70;1732187;82;25707;-49
2020/12/21 10:31:09;;;;;;;56.28;26.12;;;;;;;1.73;86.81;101347.39;1733262;82;26341;-48
2020/12/21 10:33:36;;;;;;;55.20;26.05;;;;;;;1.74;86.77;101345.03;1733266;82;26359;-54
2020/12/21 10:36:03;;;;;;;50.78;25.50;;;;;;;1.75;86.82;101343.97;1733267;82;25701;-50
2020/12/21 10:38:31;;;;;;;53.08;25.48;;;;;;;1.78;86.97;101334.20;1733346;82;25675;-49
2020/12/21 10:40:58;;;;;;;52.88;26.30;;;;;;;1.78;86.63;101344.87;1733227;82;25727;-47
2020/12/21 10:43:25;;;;;;;53.30;25.37;;;;;;;1.78;86.66;101346.73;1733367;82;25627;-48
2020/12/21 10:45:51;;;;;;;52.48;25.15;;;;;;;1.79;86.47;101339.03;1733294;82;25818;-49
2020/12/21 10:48:18;;;;;;;52.33;25.27;;;;;;;1.78;86.58;101340.86;1733100;82;25807;-49
2020/12/21 10:50:46;;;;;;;53.10;26.45;;;;;;;1.78;86.43;101330.19;1733224;82;25659;-49
2020/12/21 10:53:13;;;;;;;55.83;25.52;;;;;;;1.79;86.70;101330.50;1732261;82;25703;-52
2020/12/21 10:55:40;;;;;;;56.02;24.72;;;;;;;1.80;86.47;101320.63;1731763;82;25710;-50
2020/12/21 10:58:07;;;;;;;56.13;25.12;;;;;;;1.80;86.55;101320.11;1731798;82;25722;-51
2020/12/21 11:00:34;;;;;;;52.33;25.40;;;;;;;1.81;86.52;101319.61;1731677;82;25663;-48
2020/12/21 11:03:00;;;;;;;49.55;24.32;;;;;;;1.79;86.19;101319.83;1731627;82;25682;-48
2020/12/21 11:05:28;;;;;;;50.45;24.43;;;;;;;1.78;86.21;101321.38;1731653;82;25668;-48
2020/12/21 11:07:55;;;;;;;55.23;26.65;;;;;;;1.79;86.46;101327.83;1731729;82;25639;-48
2020/12/21 11:10:22;;;;;;;53.63;25.60;;;;;;;1.81;86.48;101321.75;1731758;82;26357;-48
2020/12/21 11:12:49;;;;;;;53.95;25.48;;;;;;;1.82;86.39;101312.72;1731559;82;25872;-48
2020/12/21 11:15:15;;;;;;;56.50;27.00;;;;;;;1.83;86.48;101318.33;1725156;82;25663;-50
2020/12/21 11:17:42;;;;;;;50.88;25.70;;;;;;;1.83;86.23;101315.66;1733024;82;25670;-49
2020/12/21 11:20:09;;;;;;;56.65;27.40;;;;;;;1.84;86.38;101315.97;1718458;82;25692;-50
2020/12/21 11:22:36;;;;;;;53.92;26.50;;;;;;;1.86;86.43;101320.55;1751071;81;25711;-51